createdAt,value
2023-02-26T04:13:02.845Z,45.90
2023-02-26T05:17:00.704Z,46.79
2023-02-26T05:37:07.786Z,45.99
2023-02-26T05:55:38.613Z,46.52
2023-02-26T06:00:31.795Z,46.52
2023-02-26T06:05:25.082Z,46.71
2023-02-26T06:10:19.501Z,47.02
2023-02-26T06:15:19.113Z,47.07
2023-02-26T06:20:13.628Z,47.04
2023-02-26T06:25:07.958Z,47.22
2023-02-26T06:30:01.267Z,47.58
2023-02-26T06:34:55.983Z,48.04
2023-02-26T06:39:49.200Z,48.44
2023-02-26T06:44:42.486Z,49.31
2023-02-26T06:49:35.655Z,49.60
2023-02-26T06:54:30.307Z,49.60
2023-02-26T06:59:23.556Z,49.35
2023-02-26T07:04:17.404Z,49.52
2023-02-26T07:09:11.853Z,49.57
2023-02-26T07:14:06.527Z,49.32
2023-02-26T07:18:59.681Z,49.01
2023-02-26T07:23:53.066Z,49.37
2023-02-26T07:28:48.586Z,49.12
2023-02-26T07:33:43.768Z,49.57
2023-02-26T07:38:37.063Z,49.67
2023-02-26T07:43:30.468Z,50.44
2023-02-26T07:48:26.590Z,50.73
2023-02-26T07:53:24.096Z,50.80
2023-02-26T07:58:17.391Z,50.88
2023-02-26T08:03:10.674Z,51.18
2023-02-26T08:08:04.087Z,51.21
2023-02-26T08:12:58.808Z,51.39
2023-02-26T08:17:55.161Z,51.24
2023-02-26T08:22:48.627Z,51.45
2023-02-26T08:27:44.342Z,51.37
2023-02-26T08:32:40.050Z,51.26
2023-02-26T08:37:33.833Z,50.88
2023-02-26T08:42:27.110Z,51.39
2023-02-26T08:47:28.457Z,50.43
2023-02-26T08:52:25.274Z,50.22
2023-02-26T08:57:18.751Z,49.78
2023-02-26T09:02:14.095Z,48.81
2023-02-26T09:07:07.595Z,48.11
2023-02-26T09:12:04.801Z,47.50
2023-02-26T09:16:58.205Z,47.00
2023-02-26T09:21:54.475Z,46.68
2023-02-26T09:26:47.658Z,45.44
2023-02-26T09:31:42.505Z,45.40
2023-02-26T09:36:37.657Z,44.29
2023-02-26T09:41:34.367Z,43.85
2023-02-26T09:46:35.312Z,43.05
2023-02-26T09:51:31.614Z,42.84
2023-02-26T09:56:27.973Z,42.63
2023-02-26T10:01:29.880Z,42.25
2023-02-26T10:06:28.029Z,41.88
2023-02-26T10:11:31.197Z,41.08
2023-02-26T10:16:29.051Z,40.88
2023-02-26T10:21:27.717Z,40.54
2023-02-26T10:26:25.065Z,40.32
2023-02-26T10:31:26.682Z,40.93
2023-02-26T10:36:26.161Z,40.47
2023-02-26T10:41:26.013Z,40.61
2023-02-26T10:46:32.656Z,39.78
2023-02-26T10:51:32.588Z,38.59
2023-02-26T10:56:31.613Z,37.59
2023-02-26T11:01:27.784Z,36.54
2023-02-26T11:06:24.176Z,35.99
2023-02-26T11:11:42.097Z,36.20
2023-02-26T11:16:43.834Z,36.30
2023-02-26T11:22:00.093Z,35.93
2023-02-26T11:27:04.343Z,35.71
2023-02-26T11:31:58.426Z,34.82
2023-02-26T11:36:53.792Z,33.67
2023-02-26T11:42:02.386Z,33.83
2023-02-26T11:47:10.098Z,33.52
2023-02-26T11:52:21.347Z,31.88
2023-02-26T11:57:20.412Z,32.45
2023-02-26T12:02:21.862Z,32.63
2023-02-26T12:07:18.773Z,33.21
2023-02-26T12:12:27.151Z,33.90
2023-02-26T12:17:36.367Z,33.39
2023-02-26T12:22:43.204Z,34.30
2023-02-26T12:27:55.333Z,34.07
2023-02-26T12:33:07.330Z,34.78
2023-02-26T12:38:10.332Z,34.70
2023-02-26T12:43:13.647Z,34.17
2023-02-26T12:48:38.929Z,34.55
2023-02-26T12:54:01.247Z,34.54
2023-02-26T12:59:18.193Z,34.92
2023-02-26T13:04:43.983Z,34.84
2023-02-26T13:09:53.061Z,35.87
2023-02-26T13:14:54.795Z,36.05
2023-02-26T13:19:52.625Z,36.00
2023-02-26T13:24:53.973Z,36.03
2023-02-26T13:29:58.054Z,36.29
2023-02-26T13:34:58.837Z,37.53
2023-02-26T13:40:07.404Z,37.87
2023-02-26T13:45:21.793Z,37.68
2023-02-26T13:50:31.146Z,38.28
2023-02-26T13:55:42.797Z,39.04
2023-02-26T14:00:48.547Z,38.85
2023-02-26T14:06:11.916Z,39.03
2023-02-26T14:11:06.180Z,39.37
2023-02-26T14:16:02.552Z,39.60
2023-02-26T14:21:34.138Z,39.90
2023-02-26T14:26:33.695Z,39.71
2023-02-26T14:31:28.255Z,39.78
2023-02-26T14:36:29.827Z,39.64
2023-02-26T14:41:32.938Z,40.01
2023-02-26T14:46:26.980Z,40.49
2023-02-26T14:51:30.349Z,40.35
2023-02-26T14:56:35.641Z,40.47
2023-02-26T15:01:44.751Z,39.92
2023-02-26T15:06:55.777Z,39.76
2023-02-26T15:12:10.870Z,40.45
2023-02-26T15:17:16.681Z,40.70
2023-02-26T15:22:24.599Z,40.61
2023-02-26T15:27:21.651Z,40.89
2023-02-26T15:32:23.055Z,40.90
2023-02-26T15:37:25.426Z,41.01
2023-02-26T15:42:30.056Z,41.05
2023-02-26T15:47:23.924Z,41.80
2023-02-26T15:52:21.886Z,42.28
2023-02-26T15:57:17.259Z,41.90
2023-02-26T16:02:15.762Z,42.20
2023-02-26T16:07:12.261Z,42.08
2023-02-26T16:12:11.011Z,41.90
2023-02-26T16:22:51.337Z,42.06
2023-02-26T16:27:55.495Z,42.61
2023-02-26T16:32:56.138Z,42.62
2023-02-26T16:37:57.986Z,42.55
2023-02-26T16:43:06.490Z,42.71
2023-02-26T16:48:01.396Z,43.12
2023-02-26T16:53:05.672Z,43.12
2023-02-26T16:58:06.165Z,43.67
2023-02-26T17:03:14.103Z,43.63
2023-02-26T17:08:16.043Z,43.89
2023-02-26T17:13:16.828Z,44.14
2023-02-26T17:18:10.531Z,44.78
2023-02-26T17:23:11.776Z,44.74
2023-02-26T17:28:07.718Z,45.19
2023-02-26T17:33:05.198Z,45.31
2023-02-26T17:38:02.828Z,45.78
2023-02-26T17:43:03.896Z,46.03
2023-02-26T17:48:01.404Z,46.53
2023-02-26T17:52:57.266Z,46.72
2023-02-26T17:57:52.905Z,47.00
2023-02-26T18:02:47.102Z,47.00
2023-02-26T18:07:45.996Z,47.00
2023-02-26T18:12:41.540Z,47.40
2023-02-26T18:23:14.215Z,47.64
2023-02-26T18:28:24.282Z,47.45
2023-02-26T19:37:27.358Z,48.00
2023-02-26T19:43:31.180Z,47.95
2023-02-26T19:49:34.362Z,48.44
2023-02-26T20:01:47.709Z,48.64
2023-02-26T20:46:18.228Z,51.51
2023-02-26T20:57:31.600Z,52.29
2023-02-26T21:15:13.321Z,53.36
2023-02-26T21:20:18.782Z,53.88
2023-02-26T21:25:15.625Z,53.92
2023-02-26T21:30:27.241Z,54.65
2023-02-26T21:35:25.140Z,55.12
2023-02-26T21:40:19.576Z,54.99
2023-02-26T21:45:17.971Z,55.47
2023-02-26T21:50:27.518Z,55.41
2023-02-26T21:55:45.326Z,55.68
2023-02-26T22:00:46.287Z,53.43
2023-02-26T22:06:26.883Z,51.51
2023-02-26T22:11:42.381Z,52.82
2023-02-26T22:16:38.024Z,54.74
2023-02-26T22:21:35.955Z,56.87
2023-02-26T22:26:29.638Z,58.14
2023-02-26T22:31:25.029Z,59.86
2023-02-26T22:36:20.939Z,62.51
2023-02-26T22:41:14.454Z,64.63
2023-02-26T22:46:12.782Z,67.08
2023-02-26T22:51:10.874Z,68.76
2023-02-26T22:56:07.353Z,70.22
2023-02-26T23:01:09.474Z,71.67
2023-02-26T23:06:04.422Z,73.18
2023-02-26T23:11:06.931Z,74.46
2023-02-26T23:16:06.674Z,75.25
2023-02-26T23:21:10.373Z,76.13
2023-02-26T23:26:26.520Z,76.93
2023-02-26T23:31:29.471Z,76.95
2023-02-26T23:36:40.196Z,77.60
2023-02-26T23:41:38.666Z,78.21
2023-02-26T23:46:32.182Z,78.69
2023-02-26T23:51:28.693Z,79.12
2023-02-26T23:56:30.561Z,79.66
